Time;durP1;ratioP1;P1;durP2;ratioP2;P2;SDS_P1;SDS_P2;PMS_P1;PMS_P2;Temp;Humidity;BMP_temperature;BMP_pressure;BME280_temperature;BME280_humidity;BME280_pressure;Samples;Min_cycle;Max_cycle;Signal;HPM_P1;HPM_P2
2022/11/21 00:00:08;;;;;;;44.10;24.23;;;;;;;;;;5003034;28;20042;-70
2022/11/21 00:02:34;;;;;;;49.35;26.70;;;;;;;;;;5010176;28;20051;-71
2022/11/21 00:05:00;;;;;;;49.78;27.40;;;;;;;;;;5010023;28;20527;-70
2022/11/21 00:07:27;;;;;;;53.50;27.52;;;;;;;;;;5004324;28;20504;-70
2022/11/21 00:09:53;;;;;;;49.40;26.45;;;;;;;;;;5020052;28;20046;-69
2022/11/21 00:12:19;;;;;;;47.47;26.67;;;;;;;;;;5021973;28;20057;-70
2022/11/21 00:14:46;;;;;;;47.35;25.73;;;;;;;;;;5004519;28;20061;-71
2022/11/21 00:17:12;;;;;;;46.17;25.02;;;;;;;;;;5005782;28;20048;-68
2022/11/21 00:19:38;;;;;;;47.45;25.17;;;;;;;;;;5005789;28;20056;-72
2022/11/21 00:22:05;;;;;;;41.00;23.20;;;;;;;;;;5020578;28;20081;-69
2022/11/21 00:24:31;;;;;;;42.17;23.95;;;;;;;;;;5018585;28;20053;-71
2022/11/21 00:26:58;;;;;;;43.00;24.85;;;;;;;;;;5010135;28;20432;-70
2022/11/21 00:29:24;;;;;;;46.35;24.10;;;;;;;;;;5020139;28;20050;-70
2022/11/21 00:31:50;;;;;;;41.67;22.50;;;;;;;;;;5011264;28;20077;-70
2022/11/21 00:34:17;;;;;;;43.15;25.40;;;;;;;;;;5014856;28;20311;-70
2022/11/21 00:36:43;;;;;;;44.25;23.38;;;;;;;;;;5019458;28;20054;-68
2022/11/21 00:39:09;;;;;;;41.83;23.73;;;;;;;;;;5022296;28;20050;-71
2022/11/21 00:41:36;;;;;;;39.88;23.08;;;;;;;;;;5022754;28;20058;-71
2022/11/21 00:44:02;;;;;;;42.63;23.35;;;;;;;;;;5020686;28;20545;-71
2022/11/21 00:46:28;;;;;;;39.22;23.33;;;;;;;;;;5012261;28;20054;-69
2022/11/21 00:48:55;;;;;;;43.55;23.05;;;;;;;;;;5008118;28;20053;-68
2022/11/21 00:51:21;;;;;;;40.42;23.48;;;;;;;;;;5013398;28;20046;-68
2022/11/21 00:53:48;;;;;;;41.70;22.38;;;;;;;;;;5020026;28;20054;-70
2022/11/21 00:56:14;;;;;;;40.85;22.35;;;;;;;;;;5007889;28;20121;-69
2022/11/21 00:58:40;;;;;;;44.15;23.90;;;;;;;;;;5014134;28;20054;-71
2022/11/21 01:01:11;;;;;;;43.28;24.13;;;;;;;;;;5020629;28;20571;-73
2022/11/21 01:03:38;;;;;;;44.53;24.25;;;;;;;;;;5018637;28;20065;-71
2022/11/21 01:06:11;;;;;;;46.67;24.60;;;;;;;;;;5003543;28;20109;-69
2022/11/21 01:08:39;;;;;;;43.63;22.95;;;;;;;;;;5014834;28;20046;-70
2022/11/21 01:11:07;;;;;;;43.72;23.75;;;;;;;;;;5020018;28;20053;-70
2022/11/21 01:13:33;;;;;;;45.67;24.13;;;;;;;;;;5006413;28;20550;-68
2022/11/21 01:16:04;;;;;;;39.75;23.48;;;;;;;;;;5022538;28;20052;-70
2022/11/21 01:18:30;;;;;;;44.75;24.67;;;;;;;;;;5016695;28;20173;-72
2022/11/21 01:21:04;;;;;;;44.50;24.55;;;;;;;;;;5010140;28;20196;-69
2022/11/21 01:23:30;;;;;;;48.13;26.33;;;;;;;;;;5019512;28;20049;-69
2022/11/21 01:26:04;;;;;;;48.00;25.70;;;;;;;;;;5021791;28;20137;-69
2022/11/21 01:28:31;;;;;;;43.65;23.35;;;;;;;;;;5015550;28;20527;-70
2022/11/21 01:31:07;;;;;;;43.13;24.08;;;;;;;;;;5015414;28;20495;-70
2022/11/21 01:33:34;;;;;;;48.45;25.15;;;;;;;;;;5011579;28;20054;-71
2022/11/21 01:36:10;;;;;;;47.80;23.67;;;;;;;;;;5016624;28;20133;-70
2022/11/21 01:38:37;;;;;;;45.25;24.38;;;;;;;;;;5015016;28;20050;-70
2022/11/21 01:41:03;;;;;;;47.10;25.38;;;;;;;;;;5018579;28;20193;-69
2022/11/21 01:43:29;;;;;;;47.25;26.02;;;;;;;;;;5012683;28;20050;-70
2022/11/21 01:45:56;;;;;;;44.22;23.90;;;;;;;;;;5022467;28;20571;-73
2022/11/21 01:48:27;;;;;;;47.05;22.85;;;;;;;;;;5010952;28;20523;-73
2022/11/21 01:50:55;;;;;;;39.85;24.35;;;;;;;;;;5004329;28;20133;-72
2022/11/21 01:53:21;;;;;;;42.58;22.90;;;;;;;;;;5001843;28;20050;-73
2022/11/21 01:55:48;;;;;;;42.95;22.95;;;;;;;;;;5013078;28;20050;-72
2022/11/21 01:58:14;;;;;;;43.45;24.40;;;;;;;;;;5020270;28;20050;-71
2022/11/21 02:00:42;;;;;;;41.13;22.80;;;;;;;;;;5018239;28;20112;-71
2022/11/21 02:03:11;;;;;;;42.58;23.58;;;;;;;;;;5013691;28;20591;-71
2022/11/21 02:05:38;;;;;;;41.92;22.77;;;;;;;;;;5006985;28;20512;-71
2022/11/21 02:08:07;;;;;;;44.45;22.35;;;;;;;;;;5009652;28;20050;-69
2022/11/21 02:10:35;;;;;;;43.35;23.33;;;;;;;;;;5008435;28;20054;-69
2022/11/21 02:13:01;;;;;;;42.13;23.35;;;;;;;;;;5006755;28;20143;-71
2022/11/21 02:15:28;;;;;;;45.08;21.55;;;;;;;;;;5006288;28;20054;-72
2022/11/21 02:17:55;;;;;;;42.72;22.48;;;;;;;;;;5018715;28;20057;-71
2022/11/21 02:20:22;;;;;;;39.40;21.23;;;;;;;;;;5011616;28;20056;-70
2022/11/21 02:22:51;;;;;;;43.40;22.95;;;;;;;;;;5011660;28;20054;-70
2022/11/21 02:25:19;;;;;;;42.00;23.20;;;;;;;;;;5009042;28;20043;-71
2022/11/21 02:27:47;;;;;;;45.03;23.42;;;;;;;;;;5010237;28;20579;-71
2022/11/21 02:30:14;;;;;;;38.58;22.17;;;;;;;;;;5022116;28;20168;-72
2022/11/21 02:32:45;;;;;;;40.35;22.95;;;;;;;;;;5021016;28;20046;-69
2022/11/21 02:35:14;;;;;;;43.65;22.88;;;;;;;;;;5041397;28;20514;-70
2022/11/21 02:37:40;;;;;;;44.67;23.40;;;;;;;;;;5012544;28;20480;-70
2022/11/21 02:40:08;;;;;;;43.67;24.13;;;;;;;;;;5021774;28;20473;-70
2022/11/21 02:42:48;;;;;;;44.80;22.95;;;;;;;;;;5010331;28;20379;-70
2022/11/21 02:45:27;;;;;;;41.78;23.33;;;;;;;;;;5020188;28;20504;-71
2022/11/21 02:47:54;;;;;;;38.03;22.23;;;;;;;;;;5013458;28;20061;-70
2022/11/21 02:50:29;;;;;;;38.33;21.13;;;;;;;;;;5005002;28;20571;-70
2022/11/21 02:52:56;;;;;;;42.92;23.48;;;;;;;;;;5016298;28;20788;-70
2022/11/21 02:55:23;;;;;;;41.88;22.77;;;;;;;;;;5014898;28;20054;-70
2022/11/21 02:57:50;;;;;;;44.72;23.25;;;;;;;;;;5012655;28;20127;-70
2022/11/21 03:00:17;;;;;;;44.55;22.75;;;;;;;;;;5021832;28;20054;-72
2022/11/21 03:02:43;;;;;;;43.22;22.80;;;;;;;;;;5012066;28;20054;-70
2022/11/21 03:05:10;;;;;;;47.75;23.35;;;;;;;;;;5018405;28;20119;-71
2022/11/21 03:07:37;;;;;;;45.65;23.55;;;;;;;;;;5021686;28;20050;-70
2022/11/21 03:10:03;;;;;;;47.55;23.80;;;;;;;;;;5011053;28;20073;-70
2022/11/21 03:12:29;;;;;;;45.90;22.20;;;;;;;;;;5012288;28;20117;-70
2022/11/21 03:14:56;;;;;;;47.72;22.85;;;;;;;;;;5023212;28;20049;-71
2022/11/21 03:17:22;;;;;;;43.42;22.23;;;;;;;;;;5017520;28;20054;-72
2022/11/21 03:19:48;;;;;;;55.08;23.70;;;;;;;;;;5015786;28;20082;-71
2022/11/21 03:22:14;;;;;;;49.55;23.15;;;;;;;;;;5012139;28;20045;-70
2022/11/21 03:24:41;;;;;;;55.25;24.05;;;;;;;;;;5019246;28;20625;-70
2022/11/21 03:27:08;;;;;;;55.75;22.65;;;;;;;;;;5016518;28;20081;-72
2022/11/21 03:29:34;;;;;;;57.65;23.77;;;;;;;;;;5009054;28;20085;-71
2022/11/21 03:32:00;;;;;;;56.55;24.13;;;;;;;;;;5004454;28;20524;-73
2022/11/21 03:34:26;;;;;;;53.90;22.58;;;;;;;;;;5010103;28;20565;-70
2022/11/21 03:36:53;;;;;;;60.03;21.58;;;;;;;;;;5019919;28;20507;-70
2022/11/21 03:39:19;;;;;;;54.50;23.05;;;;;;;;;;5019378;28;20591;-71
2022/11/21 03:41:46;;;;;;;64.45;22.50;;;;;;;;;;5006728;28;20472;-69
2022/11/21 03:44:12;;;;;;;52.67;21.75;;;;;;;;;;5016116;28;20058;-70
2022/11/21 03:46:43;;;;;;;52.65;19.63;;;;;;;;;;5019229;28;20055;-71
2022/11/21 03:49:09;;;;;;;51.90;19.92;;;;;;;;;;5005201;28;20141;-71
2022/11/21 03:51:36;;;;;;;46.33;19.25;;;;;;;;;;5007764;28;20490;-72
2022/11/21 03:54:02;;;;;;;46.47;18.40;;;;;;;;;;5018432;28;20042;-70
2022/11/21 03:56:29;;;;;;;48.78;18.77;;;;;;;;;;5013309;28;20046;-72
2022/11/21 03:58:55;;;;;;;50.72;20.23;;;;;;;;;;5003565;28;20056;-70
2022/11/21 04:01:22;;;;;;;49.58;20.38;;;;;;;;;;5014230;28;20475;-70
2022/11/21 04:03:49;;;;;;;45.00;20.85;;;;;;;;;;5007669;28;20422;-71
2022/11/21 04:06:15;;;;;;;48.88;20.40;;;;;;;;;;5018300;28;20464;-71
2022/11/21 04:08:42;;;;;;;44.60;19.50;;;;;;;;;;5015261;28;20124;-70
2022/11/21 04:11:09;;;;;;;46.95;20.15;;;;;;;;;;5016200;28;20041;-70
2022/11/21 04:13:36;;;;;;;49.35;21.95;;;;;;;;;;5016093;28;20055;-71
2022/11/21 04:16:03;;;;;;;56.70;20.25;;;;;;;;;;5012702;28;20067;-70
2022/11/21 04:18:29;;;;;;;59.97;21.17;;;;;;;;;;5020617;28;20144;-71
2022/11/21 04:20:56;;;;;;;48.97;20.38;;;;;;;;;;5004520;28;20424;-70
2022/11/21 04:23:23;;;;;;;55.28;20.25;;;;;;;;;;5018046;28;20053;-72
2022/11/21 04:25:49;;;;;;;43.78;20.10;;;;;;;;;;5017289;28;20054;-71
2022/11/21 04:28:16;;;;;;;48.60;20.45;;;;;;;;;;5008916;28;20493;-72
2022/11/21 04:30:42;;;;;;;46.47;21.00;;;;;;;;;;5009078;28;20051;-72
2022/11/21 04:33:09;;;;;;;52.55;23.10;;;;;;;;;;5016815;28;20058;-71
2022/11/21 04:35:36;;;;;;;63.47;23.20;;;;;;;;;;5010012;28;20054;-72
2022/11/21 04:38:02;;;;;;;72.28;23.08;;;;;;;;;;5009330;28;20058;-71
2022/11/21 04:40:28;;;;;;;46.92;20.90;;;;;;;;;;5010337;28;20080;-71
2022/11/21 04:42:54;;;;;;;69.13;22.42;;;;;;;;;;5009764;28;20158;-70
2022/11/21 04:45:21;;;;;;;62.70;22.50;;;;;;;;;;5011889;28;20096;-70
2022/11/21 04:47:49;;;;;;;55.83;22.13;;;;;;;;;;5017559;28;20497;-70
2022/11/21 04:50:17;;;;;;;58.80;21.25;;;;;;;;;;5021782;28;20460;-70
2022/11/21 04:52:50;;;;;;;62.20;22.73;;;;;;;;;;5013162;28;20088;-71
2022/11/21 04:55:16;;;;;;;53.85;21.85;;;;;;;;;;5022546;28;20053;-69
2022/11/21 04:57:43;;;;;;;60.38;21.70;;;;;;;;;;5008496;28;20054;-70
2022/11/21 05:00:09;;;;;;;49.60;21.77;;;;;;;;;;5020641;28;20046;-72
2022/11/21 05:02:36;;;;;;;47.50;20.90;;;;;;;;;;5012563;28;20078;-69
2022/11/21 05:05:02;;;;;;;81.18;24.30;;;;;;;;;;5021249;28;20046;-71
2022/11/21 05:07:28;;;;;;;67.57;21.80;;;;;;;;;;5021577;28;20097;-70
2022/11/21 05:09:55;;;;;;;51.03;20.25;;;;;;;;;;5017726;28;20054;-71
2022/11/21 05:15:07;;;;;;;53.80;21.92;;;;;;;;;;5017979;28;20065;-72
2022/11/21 05:17:33;;;;;;;59.88;22.58;;;;;;;;;;5019940;28;20050;-70
2022/11/21 05:19:59;;;;;;;55.00;20.85;;;;;;;;;;5019640;28;20088;-71
2022/11/21 05:22:26;;;;;;;60.38;21.80;;;;;;;;;;5048419;28;20064;-70
2022/11/21 05:24:52;;;;;;;46.95;20.50;;;;;;;;;;5017560;28;20535;-72
2022/11/21 05:27:18;;;;;;;56.08;20.65;;;;;;;;;;5016523;28;20589;-71
2022/11/21 05:29:45;;;;;;;48.38;21.05;;;;;;;;;;5014824;28;20050;-72
2022/11/21 05:32:11;;;;;;;64.53;20.83;;;;;;;;;;5015389;28;20146;-70
2022/11/21 05:34:38;;;;;;;50.90;21.88;;;;;;;;;;5015666;28;20363;-71
2022/11/21 05:37:04;;;;;;;46.00;21.98;;;;;;;;;;5019685;28;20148;-70
2022/11/21 05:39:32;;;;;;;67.35;21.52;;;;;;;;;;5021099;28;20141;-73
2022/11/21 05:41:58;;;;;;;49.42;20.85;;;;;;;;;;5027653;28;20053;-70
2022/11/21 05:44:28;;;;;;;47.25;20.90;;;;;;;;;;5035617;28;20058;-72
2022/11/21 05:46:55;;;;;;;44.25;21.13;;;;;;;;;;5021574;28;20141;-72
2022/11/21 05:49:21;;;;;;;51.08;20.88;;;;;;;;;;5017556;28;20184;-71
2022/11/21 05:51:48;;;;;;;66.00;21.30;;;;;;;;;;5020149;28;20046;-70
2022/11/21 05:54:14;;;;;;;63.03;21.23;;;;;;;;;;5020613;28;20610;-71
2022/11/21 05:56:41;;;;;;;50.40;21.33;;;;;;;;;;5022319;28;20046;-69
2022/11/21 05:59:09;;;;;;;42.28;20.70;;;;;;;;;;5019485;28;20061;-69
2022/11/21 06:04:21;;;;;;;51.23;21.70;;;;;;;;;;5029569;28;20411;-70
2022/11/21 06:06:47;;;;;;;65.85;21.88;;;;;;;;;;5027941;28;20046;-70
2022/11/21 06:09:14;;;;;;;57.08;22.77;;;;;;;;;;5022454;28;20065;-70
2022/11/21 06:11:40;;;;;;;50.38;22.20;;;;;;;;;;5021126;28;20520;-70
2022/11/21 06:14:07;;;;;;;54.63;23.92;;;;;;;;;;5023297;28;20505;-69
2022/11/21 06:16:33;;;;;;;46.03;22.95;;;;;;;;;;5022153;28;20054;-70
2022/11/21 06:18:59;;;;;;;45.53;21.25;;;;;;;;;;5024626;28;20050;-69
2022/11/21 06:21:27;;;;;;;47.75;22.63;;;;;;;;;;5024271;28;20379;-70
2022/11/21 06:23:54;;;;;;;68.78;22.60;;;;;;;;;;5020255;28;20076;-70
2022/11/21 06:26:22;;;;;;;65.40;22.42;;;;;;;;;;5012506;28;20180;-71
2022/11/21 06:28:49;;;;;;;70.07;24.33;;;;;;;;;;5023648;28;20472;-71
2022/11/21 06:31:25;;;;;;;64.55;23.65;;;;;;;;;;5020478;28;20057;-71
2022/11/21 06:33:55;;;;;;;50.65;21.70;;;;;;;;;;5023189;28;20050;-71
2022/11/21 06:36:22;;;;;;;52.72;22.17;;;;;;;;;;5024531;28;20052;-72
2022/11/21 06:38:48;;;;;;;52.95;22.10;;;;;;;;;;5023886;28;20493;-70
2022/11/21 06:41:16;;;;;;;60.78;21.85;;;;;;;;;;5021431;28;20508;-72
2022/11/21 06:43:42;;;;;;;55.17;22.65;;;;;;;;;;5027258;28;20054;-69
2022/11/21 06:46:09;;;;;;;59.22;21.50;;;;;;;;;;5023495;28;20046;-70
2022/11/21 06:48:36;;;;;;;54.72;20.92;;;;;;;;;;5024522;28;20057;-70
2022/11/21 06:51:07;;;;;;;59.47;20.83;;;;;;;;;;5027467;28;20064;-71
2022/11/21 06:53:33;;;;;;;49.05;19.05;;;;;;;;;;5019216;28;20436;-71
2022/11/21 06:56:00;;;;;;;49.17;20.42;;;;;;;;;;5029864;28;20063;-70
2022/11/21 06:58:27;;;;;;;52.72;20.85;;;;;;;;;;5021389;28;20536;-69
2022/11/21 07:00:54;;;;;;;67.15;22.15;;;;;;;;;;5015183;28;20354;-70
2022/11/21 07:03:21;;;;;;;51.03;20.98;;;;;;;;;;5023910;28;20078;-71
2022/11/21 07:05:48;;;;;;;50.28;20.90;;;;;;;;;;5021306;28;20068;-70
2022/11/21 07:08:14;;;;;;;57.35;22.00;;;;;;;;;;5020943;28;20495;-70
2022/11/21 07:10:41;;;;;;;53.28;21.52;;;;;;;;;;5020525;28;20617;-71
2022/11/21 07:13:28;;;;;;;59.15;22.00;;;;;;;;;;5021000;28;20523;-70
2022/11/21 07:15:56;;;;;;;57.20;21.98;;;;;;;;;;5026738;28;20104;-71
2022/11/21 07:18:22;;;;;;;59.45;21.65;;;;;;;;;;5016625;28;20061;-69
2022/11/21 07:20:49;;;;;;;51.78;21.30;;;;;;;;;;5023684;28;20349;-71
2022/11/21 07:23:16;;;;;;;52.72;21.60;;;;;;;;;;5023226;28;20060;-71
2022/11/21 07:25:43;;;;;;;60.13;21.40;;;;;;;;;;5016826;28;20113;-70
2022/11/21 07:28:09;;;;;;;53.63;21.08;;;;;;;;;;5019261;28;20053;-70
2022/11/21 07:30:36;;;;;;;53.00;20.50;;;;;;;;;;5017446;28;20050;-68
2022/11/21 07:33:04;;;;;;;50.70;20.67;;;;;;;;;;5012645;28;20056;-70
2022/11/21 07:35:30;;;;;;;52.75;18.40;;;;;;;;;;5021178;28;20050;-70
2022/11/21 07:37:57;;;;;;;57.38;21.10;;;;;;;;;;5020524;28;20057;-69
2022/11/21 07:40:24;;;;;;;48.65;19.75;;;;;;;;;;5011979;28;20866;-71
2022/11/21 07:42:50;;;;;;;56.17;19.52;;;;;;;;;;5020508;28;20046;-71
2022/11/21 07:45:16;;;;;;;47.85;18.58;;;;;;;;;;5021737;28;20105;-70
2022/11/21 07:47:43;;;;;;;43.20;18.33;;;;;;;;;;5010426;28;20803;-69
2022/11/21 07:50:12;;;;;;;42.08;19.70;;;;;;;;;;5019584;28;20069;-69
2022/11/21 07:52:38;;;;;;;43.15;18.30;;;;;;;;;;5020912;28;20049;-70
2022/11/21 07:55:05;;;;;;;40.45;17.92;;;;;;;;;;5018408;28;20528;-71
2022/11/21 07:57:31;;;;;;;43.97;18.52;;;;;;;;;;5013511;28;20051;-71
2022/11/21 07:59:58;;;;;;;43.47;17.67;;;;;;;;;;5019646;28;20149;-69
2022/11/21 08:02:25;;;;;;;49.83;18.00;;;;;;;;;;5028771;28;20555;-70
2022/11/21 08:04:52;;;;;;;40.85;18.65;;;;;;;;;;5014094;28;20097;-74
2022/11/21 08:07:19;;;;;;;42.78;18.98;;;;;;;;;;5021199;28;20496;-73
2022/11/21 08:09:45;;;;;;;40.15;17.73;;;;;;;;;;5019220;28;20053;-70
2022/11/21 08:12:12;;;;;;;46.70;17.67;;;;;;;;;;5005558;28;20521;-72
2022/11/21 08:14:39;;;;;;;44.95;19.33;;;;;;;;;;5018286;28;21467;-74
2022/11/21 08:17:06;;;;;;;40.40;18.52;;;;;;;;;;5017755;28;20050;-72
2022/11/21 08:19:32;;;;;;;42.58;17.42;;;;;;;;;;5024276;28;20669;-70
2022/11/21 08:21:59;;;;;;;41.63;18.45;;;;;;;;;;5019149;28;20089;-73
2022/11/21 08:24:28;;;;;;;43.17;17.40;;;;;;;;;;5018100;28;20536;-72
2022/11/21 08:26:54;;;;;;;41.42;18.55;;;;;;;;;;5018758;28;20045;-73
2022/11/21 08:29:20;;;;;;;44.15;19.30;;;;;;;;;;5025298;28;20160;-72
2022/11/21 08:31:47;;;;;;;44.28;21.05;;;;;;;;;;5007798;28;20135;-73
2022/11/21 08:34:13;;;;;;;41.67;18.15;;;;;;;;;;5023710;28;20546;-73
2022/11/21 08:36:40;;;;;;;43.15;18.75;;;;;;;;;;5031197;28;20070;-71
2022/11/21 08:39:08;;;;;;;42.97;20.17;;;;;;;;;;5023233;28;20140;-72
2022/11/21 08:44:19;;;;;;;44.13;19.13;;;;;;;;;;5010333;28;20046;-71
2022/11/21 08:46:46;;;;;;;48.95;20.20;;;;;;;;;;5009879;28;20202;-72
2022/11/21 08:49:12;;;;;;;52.97;21.08;;;;;;;;;;5021301;28;20056;-71
2022/11/21 08:51:39;;;;;;;49.05;20.13;;;;;;;;;;5020119;28;20046;-70
2022/11/21 08:54:05;;;;;;;49.63;19.27;;;;;;;;;;5008692;28;20056;-71
2022/11/21 08:56:31;;;;;;;49.15;21.73;;;;;;;;;;5004831;28;20555;-71
2022/11/21 08:58:58;;;;;;;52.75;20.35;;;;;;;;;;5014673;28;20522;-73
2022/11/21 09:01:24;;;;;;;52.70;21.27;;;;;;;;;;5016385;28;20144;-72
2022/11/21 09:03:51;;;;;;;54.40;19.98;;;;;;;;;;5024169;28;20041;-71
2022/11/21 09:06:17;;;;;;;51.85;20.15;;;;;;;;;;5020339;28;20563;-69
2022/11/21 09:08:43;;;;;;;51.10;21.17;;;;;;;;;;5013661;28;20140;-71
2022/11/21 09:11:10;;;;;;;43.78;19.67;;;;;;;;;;5007820;28;20165;-70
2022/11/21 09:13:37;;;;;;;53.08;18.88;;;;;;;;;;5027684;28;20057;-70
2022/11/21 09:18:50;;;;;;;42.05;19.63;;;;;;;;;;5019604;28;20061;-69
2022/11/21 09:21:18;;;;;;;59.45;20.60;;;;;;;;;;5006703;28;20487;-70
2022/11/21 09:23:44;;;;;;;40.63;18.95;;;;;;;;;;5020439;28;20049;-73
2022/11/21 09:26:12;;;;;;;50.88;21.40;;;;;;;;;;5007377;28;20050;-69
2022/11/21 09:28:40;;;;;;;46.58;19.90;;;;;;;;;;5008856;28;20444;-68
2022/11/21 09:31:08;;;;;;;54.20;20.83;;;;;;;;;;5014659;28;20060;-70
2022/11/21 09:33:34;;;;;;;52.75;21.13;;;;;;;;;;5021766;28;20058;-70
2022/11/21 09:36:01;;;;;;;60.53;22.70;;;;;;;;;;5011907;28;20061;-70
2022/11/21 09:38:31;;;;;;;57.33;22.80;;;;;;;;;;5017848;28;20046;-69
2022/11/21 09:41:50;;;;;;;57.10;22.05;;;;;;;;;;5008286;28;20504;-69
2022/11/21 09:43:54;;;;;;;;;;;;;;;;;;5011753;28;20046;-70
2022/11/21 09:46:23;;;;;;;55.90;21.92;;;;;;;;;;5017459;28;45200;-70
2022/11/21 09:48:52;;;;;;;58.92;22.70;;;;;;;;;;5016089;28;20054;-70
2022/11/21 09:51:21;;;;;;;67.05;23.02;;;;;;;;;;5012178;28;20509;-69
2022/11/21 09:53:56;;;;;;;73.53;24.65;;;;;;;;;;5033617;28;20049;-70
2022/11/21 09:56:23;;;;;;;;;;;;;;;;;;5025114;28;20053;-68
2022/11/21 09:58:58;;;;;;;64.53;22.90;;;;;;;;;;5046266;28;44939;-69
2022/11/21 10:01:25;;;;;;;65.43;21.95;;;;;;;;;;5018691;28;20295;-70
2022/11/21 10:03:51;;;;;;;73.55;26.08;;;;;;;;;;5024190;28;20061;-70
2022/11/21 10:06:17;;;;;;;80.10;24.80;;;;;;;;;;5019696;28;20052;-70
2022/11/21 10:09:03;;;;;;;54.38;21.30;;;;;;;;;;5024764;28;20124;-69
2022/11/21 10:11:35;;;;;;;59.57;22.77;;;;;;;;;;5037019;28;20053;-70
2022/11/21 10:14:11;;;;;;;56.95;22.85;;;;;;;;;;5019020;28;20606;-71
2022/11/21 10:16:37;;;;;;;;;;;;;;;;;;5054469;28;20054;-69
2022/11/21 10:19:07;;;;;;;54.78;21.35;;;;;;;;;;5019136;28;46041;-70
2022/11/21 10:21:46;;;;;;;59.35;22.05;;;;;;;;;;5018712;28;20495;-70
2022/11/21 10:24:12;;;;;;;71.80;24.65;;;;;;;;;;5035477;28;20057;-72
2022/11/21 10:26:48;;;;;;;59.08;22.77;;;;;;;;;;5012037;28;20580;-71
2022/11/21 10:29:14;;;;;;;;;;;;;;;;;;5012968;28;20531;-73
2022/11/21 10:31:41;;;;;;;;;;;;;;;;;;5019139;28;45997;-70
2022/11/21 10:34:14;;;;;;;58.17;22.73;;;;;;;;;;5016646;28;43975;-72
2022/11/21 10:36:42;;;;;;;50.03;22.98;;;;;;;;;;5015760;28;20060;-72
2022/11/21 10:39:19;;;;;;;61.80;24.13;;;;;;;;;;5030758;28;20597;-70
2022/11/21 10:41:57;;;;;;;64.43;22.60;;;;;;;;;;5017863;28;20096;-72
2022/11/21 10:47:15;;;;;;;74.13;24.88;;;;;;;;;;5021410;28;20567;-72
2022/11/21 10:49:42;;;;;;;74.25;25.58;;;;;;;;;;5031871;28;20595;-70
2022/11/21 10:52:18;;;;;;;61.60;23.55;;;;;;;;;;5023868;28;20046;-73
2022/11/21 10:55:02;;;;;;;64.75;23.65;;;;;;;;;;5019922;28;20053;-73
2022/11/21 10:57:35;;;;;;;66.53;25.88;;;;;;;;;;5028036;28;20546;-71
2022/11/21 11:00:13;;;;;;;74.50;24.05;;;;;;;;;;5022918;28;20053;-70
2022/11/21 11:02:41;;;;;;;66.70;24.23;;;;;;;;;;5023790;28;20058;-72
2022/11/21 11:05:23;;;;;;;76.57;27.25;;;;;;;;;;5018624;28;20129;-70
2022/11/21 11:08:03;;;;;;;67.40;23.85;;;;;;;;;;5025615;28;20050;-73
2022/11/21 11:10:30;;;;;;;57.60;24.27;;;;;;;;;;5016155;28;20157;-72
2022/11/21 11:16:04;;;;;;;65.28;25.40;;;;;;;;;;5010656;28;20352;-70
2022/11/21 11:18:36;;;;;;;60.55;24.98;;;;;;;;;;5022965;28;20057;-71
2022/11/21 11:21:11;;;;;;;66.82;24.73;;;;;;;;;;5036563;28;20049;-70
2022/11/21 11:23:37;;;;;;;68.82;24.98;;;;;;;;;;5031761;28;20061;-72
2022/11/21 11:26:16;;;;;;;67.57;26.40;;;;;;;;;;5029891;28;20045;-71
2022/11/21 11:28:43;;;;;;;75.10;27.67;;;;;;;;;;5017272;28;20050;-72
2022/11/21 11:31:09;;;;;;;64.32;24.10;;;;;;;;;;5012795;28;20132;-72
2022/11/21 11:33:41;;;;;;;68.97;26.38;;;;;;;;;;5020143;28;20089;-72
2022/11/21 11:36:13;;;;;;;62.22;25.45;;;;;;;;;;5021010;28;20054;-70
2022/11/21 11:38:44;;;;;;;53.67;25.20;;;;;;;;;;5017225;28;20153;-72
2022/11/21 11:41:27;;;;;;;73.30;27.90;;;;;;;;;;5020355;28;20042;-71
2022/11/21 11:52:26;;;;;;;60.88;27.38;;;;;;;;;;5019774;28;20522;-70
2022/11/21 11:54:59;;;;;;;60.33;27.55;;;;;;;;;;5016430;28;20049;-70
2022/11/21 11:57:26;;;;;;;62.88;27.35;;;;;;;;;;5018260;28;20535;-71
2022/11/21 12:00:03;;;;;;;51.47;24.38;;;;;;;;;;5012915;28;20081;-72
2022/11/21 12:02:40;;;;;;;54.42;25.33;;;;;;;;;;5008966;28;20050;-69
2022/11/21 12:05:11;;;;;;;51.83;24.45;;;;;;;;;;5025424;28;20073;-70
2022/11/21 12:07:42;;;;;;;55.28;24.55;;;;;;;;;;5038710;28;20137;-71
2022/11/21 12:10:36;;;;;;;54.38;25.75;;;;;;;;;;5028704;28;20061;-71
2022/11/21 12:13:23;;;;;;;56.67;23.63;;;;;;;;;;5021600;28;20056;-71
2022/11/21 12:15:51;;;;;;;49.08;24.02;;;;;;;;;;5020960;28;20053;-72
2022/11/21 12:18:18;;;;;;;48.88;23.75;;;;;;;;;;5024133;28;20049;-71
2022/11/21 12:20:47;;;;;;;56.60;25.17;;;;;;;;;;5033714;28;20081;-71
2022/11/21 12:23:14;;;;;;;57.50;26.27;;;;;;;;;;5025512;28;20058;-71
2022/11/21 12:25:59;;;;;;;49.60;25.05;;;;;;;;;;5033545;28;20060;-69
2022/11/21 12:28:30;;;;;;;45.85;23.80;;;;;;;;;;5021166;28;20057;-71
2022/11/21 12:30:56;;;;;;;52.95;26.38;;;;;;;;;;5019909;28;20050;-69
2022/11/21 12:33:22;;;;;;;54.58;25.98;;;;;;;;;;5031427;28;20049;-71
2022/11/21 12:35:49;;;;;;;51.08;26.58;;;;;;;;;;5018818;28;20057;-71
2022/11/21 12:38:21;;;;;;;61.28;26.67;;;;;;;;;;5028797;28;20054;-71
2022/11/21 12:40:47;;;;;;;58.28;25.55;;;;;;;;;;5029347;28;20049;-69
2022/11/21 12:43:28;;;;;;;46.72;23.52;;;;;;;;;;5019286;28;20483;-70
2022/11/21 12:46:15;;;;;;;52.05;24.33;;;;;;;;;;5010257;28;20046;-69
2022/11/21 12:54:40;;;;;;;45.13;22.90;;;;;;;;;;5027983;28;20108;-68
2022/11/21 12:57:10;;;;;;;45.30;23.55;;;;;;;;;;5034245;28;20057;-69
2022/11/21 12:59:41;;;;;;;56.35;24.30;;;;;;;;;;5038104;28;20103;-70
2022/11/21 13:02:27;;;;;;;50.05;23.02;;;;;;;;;;5034343;28;20053;-69
2022/11/21 13:04:54;;;;;;;40.65;22.88;;;;;;;;;;5021094;28;20060;-69
2022/11/21 13:07:22;;;;;;;40.10;22.75;;;;;;;;;;5021761;28;20045;-69
2022/11/21 13:09:51;;;;;;;43.20;22.88;;;;;;;;;;5019632;28;20085;-69
2022/11/21 13:12:25;;;;;;;39.90;21.63;;;;;;;;;;5020141;28;20057;-69
2022/11/21 13:14:57;;;;;;;40.70;21.85;;;;;;;;;;5016298;28;20556;-68
2022/11/21 13:17:23;;;;;;;34.13;19.67;;;;;;;;;;5021739;28;20535;-69
2022/11/21 13:19:50;;;;;;;31.40;18.35;;;;;;;;;;5021408;28;20080;-69
2022/11/21 13:22:34;;;;;;;33.17;17.52;;;;;;;;;;5024674;28;20046;-69
2022/11/21 13:25:01;;;;;;;31.25;17.20;;;;;;;;;;5020736;28;20652;-71
2022/11/21 13:27:46;;;;;;;34.05;17.73;;;;;;;;;;5020422;28;20050;-68
2022/11/21 13:30:13;;;;;;;28.45;17.05;;;;;;;;;;5031467;28;20535;-68
2022/11/21 13:32:48;;;;;;;39.42;18.38;;;;;;;;;;5025761;28;20053;-69
2022/11/21 13:35:20;;;;;;;27.60;17.60;;;;;;;;;;5017272;28;20114;-70
2022/11/21 13:38:01;;;;;;;33.78;17.75;;;;;;;;;;5023538;28;20085;-69
2022/11/21 13:40:28;;;;;;;32.78;16.42;;;;;;;;;;5012642;28;20053;-69
2022/11/21 13:43:14;;;;;;;31.70;17.45;;;;;;;;;;5017743;28;20105;-72
2022/11/21 13:45:58;;;;;;;26.48;16.15;;;;;;;;;;5010052;28;20069;-72
2022/11/21 13:48:29;;;;;;;32.70;15.60;;;;;;;;;;5034721;28;20515;-73
2022/11/21 13:50:58;;;;;;;31.00;16.42;;;;;;;;;;5014831;28;20359;-69
2022/11/21 13:53:30;;;;;;;27.30;17.30;;;;;;;;;;5045048;28;20543;-70
2022/11/21 13:56:06;;;;;;;31.42;15.82;;;;;;;;;;5019198;28;20522;-70
2022/11/21 13:58:38;;;;;;;23.63;16.17;;;;;;;;;;5020239;28;20053;-72
2022/11/21 14:01:22;;;;;;;24.10;15.60;;;;;;;;;;5032171;28;20512;-71
2022/11/21 14:04:11;;;;;;;28.45;15.43;;;;;;;;;;5020631;28;20519;-72
2022/11/21 14:06:40;;;;;;;34.97;16.52;;;;;;;;;;5024214;28;20530;-71
2022/11/21 14:09:26;;;;;;;29.35;16.55;;;;;;;;;;5023195;28;20075;-72
2022/11/21 14:12:00;;;;;;;31.85;16.63;;;;;;;;;;5027701;28;20197;-72
2022/11/21 14:14:39;;;;;;;24.92;14.13;;;;;;;;;;5035707;28;20168;-70
2022/11/21 14:17:13;;;;;;;24.85;15.00;;;;;;;;;;5029108;28;20047;-71
2022/11/21 14:19:40;;;;;;;22.50;13.70;;;;;;;;;;5033670;28;20054;-72
2022/11/21 14:22:14;;;;;;;29.67;15.20;;;;;;;;;;5026009;28;20056;-72
2022/11/21 14:24:41;;;;;;;22.73;13.60;;;;;;;;;;5027588;28;20528;-71
2022/11/21 14:27:14;;;;;;;23.17;14.07;;;;;;;;;;5026767;28;20534;-71
2022/11/21 14:29:41;;;;;;;29.13;15.25;;;;;;;;;;5028535;28;20550;-71
2022/11/21 14:32:13;;;;;;;21.52;14.10;;;;;;;;;;5032831;28;20041;-71
2022/11/21 14:34:40;;;;;;;21.98;13.82;;;;;;;;;;5012378;28;20054;-71
2022/11/21 14:37:06;;;;;;;22.92;13.73;;;;;;;;;;5022316;28;20085;-71
2022/11/21 14:39:38;;;;;;;22.80;14.02;;;;;;;;;;5023546;28;20049;-72
2022/11/21 14:42:12;;;;;;;22.92;12.80;;;;;;;;;;5024863;28;20597;-72
2022/11/21 14:44:38;;;;;;;22.90;13.95;;;;;;;;;;5024939;28;20049;-70
2022/11/21 14:47:15;;;;;;;33.15;14.52;;;;;;;;;;5031824;28;20504;-71
2022/11/21 14:49:51;;;;;;;22.92;13.77;;;;;;;;;;5011120;28;20548;-70
2022/11/21 14:52:25;;;;;;;23.25;14.50;;;;;;;;;;5030028;28;20394;-70
2022/11/21 14:54:53;;;;;;;33.53;14.80;;;;;;;;;;5025982;28;20054;-69
2022/11/21 14:57:41;;;;;;;22.92;13.50;;;;;;;;;;5022129;28;20569;-70
2022/11/21 15:00:08;;;;;;;22.80;14.13;;;;;;;;;;5026719;28;20050;-72